To NAV CANADA Home Page Login to a new session Search on AWWS site Disclaimer Vers la page française équivalente Tips FAQ What's new on the site To the Forecasts and Observations / NOTAM section To "File a Flight Plan" website Publications and other links Update of the User's profile FIC Telephone Numbers My Weather Data Folder Route Weather Data Regional Weather Data Local Weather Data To the Forecasts and Observations / NOTAM section
Request Generated 11/16/2018 at 02:02:59 UTC . Weather information available at that time is displayed.

METAR/TAF

WINNIPEG/JAMES ARMSTRONG RICHARDSON INTL/MB    

METAR CYWG 160200Z 36012KT 15SM FEW018 OVC035 M05/M09 A3002 RMK SC2SC6 SLP183=
METAR CYWG 160100Z 35012KT 15SM FEW020 OVC030 M05/M08 A3001 RMK SC2SC6 SLP181=
METAR CYWG 160000Z 35015G20KT 15SM OVC020 M04/M08 A3000 RMK SC8 CIG RAG SLP176=

TAF AMD CYWG 160110Z 1601/1624 35012KT P6SM FEW008 SCT020 OVC025
TEMPO 1601/1615 6SM -SN BKN008 OVC012
FM161500 34012KT P6SM BKN025 TEMPO 1615/1624 BKN020
RMK NXT FCST BY 160600Z=
Your time UTC time
Weather data provided by Environment Canada and NAV CANADA